sensor_id;sensor_type;location;lat;lon;timestamp;pressure;altitude;pressure_sealevel;temperature;humidity
51261;BME280;61705;46.228;24.812;2023-11-21T00:00:14;97120.59;;;3.92;100.00
51261;BME280;61705;46.228;24.812;2023-11-21T00:02:43;97113.72;;;3.90;100.00
51261;BME280;61705;46.228;24.812;2023-11-21T00:05:14;97117.13;;;3.92;100.00
51261;BME280;61705;46.228;24.812;2023-11-21T00:07:43;97113.50;;;3.97;100.00
51261;BME280;61705;46.228;24.812;2023-11-21T00:10:10;97115.28;;;3.95;100.00
51261;BME280;61705;46.228;24.812;2023-11-21T00:12:41;97113.50;;;3.96;100.00
51261;BME280;61705;46.228;24.812;2023-11-21T00:15:09;97111.88;;;3.93;100.00
51261;BME280;61705;46.228;24.812;2023-11-21T00:17:39;97103.19;;;3.91;100.00
51261;BME280;61705;46.228;24.812;2023-11-21T00:20:11;97105.75;;;3.93;100.00
51261;BME280;61705;46.228;24.812;2023-11-21T00:22:45;97101.34;;;3.95;100.00
51261;BME280;61705;46.228;24.812;2023-11-21T00:25:12;97099.59;;;3.95;100.00
51261;BME280;61705;46.228;24.812;2023-11-21T00:27:47;97104.78;;;3.97;100.00
51261;BME280;61705;46.228;24.812;2023-11-21T00:30:14;97103.06;;;3.96;100.00
51261;BME280;61705;46.228;24.812;2023-11-21T00:32:41;97099.59;;;3.95;100.00
51261;BME280;61705;46.228;24.812;2023-11-21T00:35:08;97111.81;;;3.95;100.00
51261;BME280;61705;46.228;24.812;2023-11-21T00:37:40;97114.34;;;3.98;100.00
51261;BME280;61705;46.228;24.812;2023-11-21T00:40:12;97120.47;;;3.97;100.00
51261;BME280;61705;46.228;24.812;2023-11-21T00:42:39;97118.75;;;3.96;100.00
51261;BME280;61705;46.228;24.812;2023-11-21T00:45:09;97116.94;;;3.98;100.00
51261;BME280;61705;46.228;24.812;2023-11-21T00:47:35;97110.88;;;3.97;100.00
51261;BME280;61705;46.228;24.812;2023-11-21T00:50:02;97110.03;;;3.95;100.00
51261;BME280;61705;46.228;24.812;2023-11-21T00:52:31;97108.34;;;3.94;100.00
51261;BME280;61705;46.228;24.812;2023-11-21T00:54:58;97113.50;;;3.97;100.00
51261;BME280;61705;46.228;24.812;2023-11-21T00:57:34;97114.25;;;4.01;100.00
51261;BME280;61705;46.228;24.812;2023-11-21T01:00:20;97104.66;;;4.01;100.00
51261;BME280;61705;46.228;24.812;2023-11-21T01:02:47;97107.28;;;4.00;100.00
51261;BME280;61705;46.228;24.812;2023-11-21T01:05:15;97102.03;;;4.01;100.00
51261;BME280;61705;46.228;24.812;2023-11-21T01:07:42;97106.53;;;3.96;100.00
51261;BME280;61705;46.228;24.812;2023-11-21T01:10:08;97102.19;;;3.97;100.00
51261;BME280;61705;46.228;24.812;2023-11-21T01:12:36;97100.44;;;3.96;100.00
51261;BME280;61705;46.228;24.812;2023-11-21T01:15:06;97100.41;;;3.97;100.00
51261;BME280;61705;46.228;24.812;2023-11-21T01:17:38;97100.44;;;3.96;100.00
51261;BME280;61705;46.228;24.812;2023-11-21T01:20:07;97096.97;;;3.95;100.00
51261;BME280;61705;46.228;24.812;2023-11-21T01:22:40;97088.28;;;3.95;100.00
51261;BME280;61705;46.228;24.812;2023-11-21T01:25:10;97083.88;;;3.97;100.00
51261;BME280;61705;46.228;24.812;2023-11-21T01:27:37;97090.72;;;4.01;100.00
51261;BME280;61705;46.228;24.812;2023-11-21T01:30:06;97087.28;;;3.99;100.00
51261;BME280;61705;46.228;24.812;2023-11-21T01:32:34;97085.50;;;4.01;100.00
51261;BME280;61705;46.228;24.812;2023-11-21T01:35:02;97081.22;;;3.98;100.00
51261;BME280;61705;46.228;24.812;2023-11-21T01:37:29;97076.91;;;3.96;100.00
51261;BME280;61705;46.228;24.812;2023-11-21T01:39:56;97073.53;;;3.92;100.00
51261;BME280;61705;46.228;24.812;2023-11-21T01:42:25;97074.28;;;3.97;100.00
51261;BME280;61705;46.228;24.812;2023-11-21T01:44:51;97070.81;;;3.97;100.00
51261;BME280;61705;46.228;24.812;2023-11-21T01:47:20;97077.91;;;3.92;100.00
51261;BME280;61705;46.228;24.812;2023-11-21T01:49:47;97078.06;;;3.87;100.00
51261;BME280;61705;46.228;24.812;2023-11-21T01:52:14;97074.53;;;3.88;100.00
51261;BME280;61705;46.228;24.812;2023-11-21T01:54:51;97084.84;;;3.93;100.00
51261;BME280;61705;46.228;24.812;2023-11-21T01:57:19;97073.69;;;3.88;100.00
51261;BME280;61705;46.228;24.812;2023-11-21T01:59:47;97076.28;;;3.88;100.00
51261;BME280;61705;46.228;24.812;2023-11-21T02:02:15;97079.72;;;3.90;100.00
51261;BME280;61705;46.228;24.812;2023-11-21T02:04:43;97080.53;;;3.92;100.00
51261;BME280;61705;46.228;24.812;2023-11-21T02:07:09;97084.81;;;3.94;100.00
51261;BME280;61705;46.228;24.812;2023-11-21T02:09:39;97083.00;;;3.96;100.00
51261;BME280;61705;46.228;24.812;2023-11-21T02:12:08;97087.44;;;3.94;100.00
51261;BME280;61705;46.228;24.812;2023-11-21T02:14:38;97078.59;;;3.98;100.00
51261;BME280;61705;46.228;24.812;2023-11-21T02:17:04;97080.44;;;3.95;100.00
51261;BME280;61705;46.228;24.812;2023-11-21T02:19:31;97090.81;;;3.98;100.00
51261;BME280;61705;46.228;24.812;2023-11-21T02:22:00;97079.50;;;3.97;100.00
51261;BME280;61705;46.228;24.812;2023-11-21T02:24:33;97074.44;;;3.91;100.00
51261;BME280;61705;46.228;24.812;2023-11-21T02:27:01;97071.75;;;3.94;100.00
51261;BME280;61705;46.228;24.812;2023-11-21T02:29:28;97080.53;;;3.92;100.00
51261;BME280;61705;46.228;24.812;2023-11-21T02:31:55;97091.03;;;3.90;100.00
51261;BME280;61705;46.228;24.812;2023-11-21T02:34:22;97083.13;;;3.93;100.00
51261;BME280;61705;46.228;24.812;2023-11-21T02:36:51;97076.06;;;3.95;100.00
51261;BME280;61705;46.228;24.812;2023-11-21T02:39:20;97075.31;;;3.92;100.00
51261;BME280;61705;46.228;24.812;2023-11-21T02:41:51;97083.91;;;3.95;100.00
51261;BME280;61705;46.228;24.812;2023-11-21T02:44:23;97086.34;;;4.01;100.00
51261;BME280;61705;46.228;24.812;2023-11-21T02:46:50;97085.59;;;3.98;100.00
51261;BME280;61705;46.228;24.812;2023-11-21T02:49:19;97082.13;;;3.97;100.00
51261;BME280;61705;46.228;24.812;2023-11-21T02:51:47;97082.91;;;3.99;100.00
51261;BME280;61705;46.228;24.812;2023-11-21T02:54:14;97083.75;;;4.00;100.00
51261;BME280;61705;46.228;24.812;2023-11-21T02:56:43;97089.00;;;4.00;100.00
51261;BME280;61705;46.228;24.812;2023-11-21T02:59:09;97089.88;;;4.00;100.00
51261;BME280;61705;46.228;24.812;2023-11-21T03:01:36;97088.22;;;3.96;100.00
51261;BME280;61705;46.228;24.812;2023-11-21T03:04:05;97086.53;;;3.95;100.00
51261;BME280;61705;46.228;24.812;2023-11-21T03:06:33;97084.69;;;3.99;100.00
51261;BME280;61705;46.228;24.812;2023-11-21T03:09:00;97086.38;;;4.00;100.00
51261;BME280;61705;46.228;24.812;2023-11-21T03:11:28;97088.13;;;4.01;100.00
51261;BME280;61705;46.228;24.812;2023-11-21T03:13:55;97088.06;;;4.02;100.00
51261;BME280;61705;46.228;24.812;2023-11-21T03:16:22;97088.03;;;4.04;100.00
51261;BME280;61705;46.228;24.812;2023-11-21T03:18:52;97079.50;;;3.97;100.00
51261;BME280;61705;46.228;24.812;2023-11-21T03:21:19;97082.06;;;3.99;100.00
51261;BME280;61705;46.228;24.812;2023-11-21T03:23:45;97075.13;;;3.98;100.00
51261;BME280;61705;46.228;24.812;2023-11-21T03:26:12;97080.34;;;3.98;100.00
51261;BME280;61705;46.228;24.812;2023-11-21T03:28:39;97087.28;;;3.99;100.00
51261;BME280;61705;46.228;24.812;2023-11-21T03:31:06;97086.38;;;4.00;100.00
51261;BME280;61705;46.228;24.812;2023-11-21T03:33:33;97076.91;;;3.96;100.00
51261;BME280;61705;46.228;24.812;2023-11-21T03:36:02;97083.81;;;3.98;100.00
51261;BME280;61705;46.228;24.812;2023-11-21T03:38:34;97072.44;;;4.01;100.00
51261;BME280;61705;46.228;24.812;2023-11-21T03:41:03;97083.69;;;4.03;100.00
51261;BME280;61705;46.228;24.812;2023-11-21T03:43:30;97083.81;;;3.98;100.00
51261;BME280;61705;46.228;24.812;2023-11-21T03:45:59;97093.44;;;3.98;100.00
51261;BME280;61705;46.228;24.812;2023-11-21T03:48:26;97088.13;;;4.01;100.00
51261;BME280;61705;46.228;24.812;2023-11-21T03:50:52;97089.88;;;4.00;100.00
51261;BME280;61705;46.228;24.812;2023-11-21T03:53:23;97089.88;;;4.00;100.00
51261;BME280;61705;46.228;24.812;2023-11-21T03:55:50;97091.66;;;3.98;100.00
51261;BME280;61705;46.228;24.812;2023-11-21T03:58:19;97099.44;;;4.00;100.00
51261;BME280;61705;46.228;24.812;2023-11-21T04:00:48;97097.75;;;3.99;100.00
51261;BME280;61705;46.228;24.812;2023-11-21T04:03:19;97095.09;;;4.00;100.00
51261;BME280;61705;46.228;24.812;2023-11-21T04:05:46;97091.59;;;4.00;100.00
51261;BME280;61705;46.228;24.812;2023-11-21T04:08:13;97088.88;;;4.04;100.00
51261;BME280;61705;46.228;24.812;2023-11-21T04:10:40;97089.66;;;4.07;100.00
51261;BME280;61705;46.228;24.812;2023-11-21T04:13:40;97100.13;;;4.07;100.00
51261;BME280;61705;46.228;24.812;2023-11-21T04:16:09;97096.84;;;4.00;100.00
51261;BME280;61705;46.228;24.812;2023-11-21T04:18:38;97101.28;;;3.96;100.00
51261;BME280;61705;46.228;24.812;2023-11-21T04:21:05;97104.13;;;3.89;100.00
51261;BME280;61705;46.228;24.812;2023-11-21T04:23:32;97104.19;;;3.87;100.00
51261;BME280;61705;46.228;24.812;2023-11-21T04:25:59;97110.97;;;3.93;100.00
51261;BME280;61705;46.228;24.812;2023-11-21T04:28:29;97108.66;;;3.84;100.00
51261;BME280;61705;46.228;24.812;2023-11-21T04:31:01;97100.81;;;3.84;100.00
51261;BME280;61705;46.228;24.812;2023-11-21T04:33:28;97101.69;;;3.83;100.00
51261;BME280;61705;46.228;24.812;2023-11-21T04:35:55;97107.78;;;3.83;100.00
51261;BME280;61705;46.228;24.812;2023-11-21T04:38:23;97111.22;;;3.85;100.00
51261;BME280;61705;46.228;24.812;2023-11-21T04:40:53;97113.03;;;3.83;100.00
51261;BME280;61705;46.228;24.812;2023-11-21T04:43:29;97113.97;;;3.80;100.00
51261;BME280;61705;46.228;24.812;2023-11-21T04:45:56;97116.66;;;3.77;100.00
51261;BME280;61705;46.228;24.812;2023-11-21T04:48:22;97110.44;;;3.82;100.00
51261;BME280;61705;46.228;24.812;2023-11-21T04:50:49;97110.53;;;3.78;100.00
51261;BME280;61705;46.228;24.812;2023-11-21T04:53:17;97107.97;;;3.77;100.00
51261;BME280;61705;46.228;24.812;2023-11-21T04:55:43;97103.59;;;3.77;100.00
51261;BME280;61705;46.228;24.812;2023-11-21T04:58:12;97101.81;;;3.78;100.00
51261;BME280;61705;46.228;24.812;2023-11-21T05:00:41;97099.22;;;3.78;100.00
51261;BME280;61705;46.228;24.812;2023-11-21T05:03:07;97100.06;;;3.78;100.00
51261;BME280;61705;46.228;24.812;2023-11-21T05:05:34;97112.19;;;3.81;100.00
51261;BME280;61705;46.228;24.812;2023-11-21T05:08:02;97114.94;;;3.76;100.00
51261;BME280;61705;46.228;24.812;2023-11-21T05:10:29;97112.34;;;3.76;100.00
51261;BME280;61705;46.228;24.812;2023-11-21T05:12:59;97104.56;;;3.73;100.00
51261;BME280;61705;46.228;24.812;2023-11-21T05:15:26;97106.16;;;3.79;100.00
51261;BME280;61705;46.228;24.812;2023-11-21T05:17:56;97109.75;;;3.75;100.00
51261;BME280;61705;46.228;24.812;2023-11-21T05:20:28;97114.13;;;3.74;100.00
51261;BME280;61705;46.228;24.812;2023-11-21T05:22:55;97115.81;;;3.75;100.00
51261;BME280;61705;46.228;24.812;2023-11-21T05:25:22;97113.13;;;3.78;100.00
51261;BME280;61705;46.228;24.812;2023-11-21T05:27:51;97114.88;;;3.79;100.00
51261;BME280;61705;46.228;24.812;2023-11-21T05:30:20;97121.81;;;3.80;100.00
51261;BME280;61705;46.228;24.812;2023-11-21T05:32:47;97114.88;;;3.79;100.00
51261;BME280;61705;46.228;24.812;2023-11-21T05:35:19;97119.19;;;3.80;100.00
51261;BME280;61705;46.228;24.812;2023-11-21T05:37:45;97116.41;;;3.87;100.00
51261;BME280;61705;46.228;24.812;2023-11-21T05:40:15;97119.81;;;3.89;100.00
51261;BME280;61705;46.228;24.812;2023-11-21T05:42:43;97116.13;;;3.96;100.00
51261;BME280;61705;46.228;24.812;2023-11-21T05:45:13;97110.81;;;3.99;100.00
51261;BME280;61705;46.228;24.812;2023-11-21T05:47:41;97122.94;;;4.01;100.00
51261;BME280;61705;46.228;24.812;2023-11-21T05:50:08;97126.50;;;3.99;100.00
51261;BME280;61705;46.228;24.812;2023-11-21T05:52:44;97124.72;;;4.01;100.00
51261;BME280;61705;46.228;24.812;2023-11-21T05:55:15;97116.03;;;3.99;100.00
51261;BME280;61705;46.228;24.812;2023-11-21T05:57:43;97130.09;;;3.95;100.00
51261;BME280;61705;46.228;24.812;2023-11-21T06:00:14;97128.31;;;3.97;100.00
51261;BME280;61705;46.228;24.812;2023-11-21T06:02:52;97120.38;;;4.00;100.00
51261;BME280;61705;46.228;24.812;2023-11-21T06:05:26;97115.97;;;4.02;100.00
51261;BME280;61705;46.228;24.812;2023-11-21T06:07:53;97128.19;;;4.01;100.00
51261;BME280;61705;46.228;24.812;2023-11-21T06:10:23;97128.09;;;4.04;100.00
51261;BME280;61705;46.228;24.812;2023-11-21T06:12:51;97128.13;;;4.03;100.00
51261;BME280;61705;46.228;24.812;2023-11-21T06:15:18;97134.31;;;4.00;100.00
51261;BME280;61705;46.228;24.812;2023-11-21T06:17:47;97133.41;;;4.01;100.00
51261;BME280;61705;46.228;24.812;2023-11-21T06:20:19;97129.13;;;3.99;100.00
51261;BME280;61705;46.228;24.812;2023-11-21T06:22:47;97135.25;;;3.98;100.00
51261;BME280;61705;46.228;24.812;2023-11-21T06:25:20;97130.03;;;3.98;100.00
51261;BME280;61705;46.228;24.812;2023-11-21T06:27:52;97136.09;;;3.98;100.00
51261;BME280;61705;46.228;24.812;2023-11-21T06:30:20;97136.88;;;4.02;100.00
51261;BME280;61705;46.228;24.812;2023-11-21T06:32:48;97135.88;;;4.06;100.00
51261;BME280;61705;46.228;24.812;2023-11-21T06:35:16;97140.31;;;4.04;100.00
51261;BME280;61705;46.228;24.812;2023-11-21T06:37:43;97141.97;;;4.07;100.00
51261;BME280;61705;46.228;24.812;2023-11-21T06:40:18;97142.66;;;4.13;100.00
51261;BME280;61705;46.228;24.812;2023-11-21T06:42:46;97140.69;;;4.21;100.00
51261;BME280;61705;46.228;24.812;2023-11-21T06:45:13;97141.56;;;4.20;100.00
51261;BME280;61705;46.228;24.812;2023-11-21T06:47:41;97139.84;;;4.21;100.00
51261;BME280;61705;46.228;24.812;2023-11-21T06:50:10;97137.34;;;4.16;100.00
51261;BME280;61705;46.228;24.812;2023-11-21T06:52:40;97143.41;;;4.17;100.00
51261;BME280;61705;46.228;24.812;2023-11-21T06:55:09;97145.09;;;4.19;100.00
51261;BME280;61705;46.228;24.812;2023-11-21T06:57:37;97145.06;;;4.21;100.00
51261;BME280;61705;46.228;24.812;2023-11-21T07:00:05;97152.63;;;4.30;100.00
51261;BME280;61705;46.228;24.812;2023-11-21T07:02:38;97163.91;;;4.32;100.00
51261;BME280;61705;46.228;24.812;2023-11-21T07:05:06;97154.91;;;4.41;100.00
51261;BME280;61705;46.228;24.812;2023-11-21T07:07:38;97162.66;;;4.45;100.00
51261;BME280;61705;46.228;24.812;2023-11-21T07:10:05;97161.41;;;4.57;100.00
51261;BME280;61705;46.228;24.812;2023-11-21T07:12:32;97164.41;;;4.45;100.00
51261;BME280;61705;46.228;24.812;2023-11-21T07:15:04;97169.81;;;4.39;100.00
51261;BME280;61705;46.228;24.812;2023-11-21T07:17:36;97173.50;;;4.61;100.00
51261;BME280;61705;46.228;24.812;2023-11-21T07:20:07;97169.16;;;4.62;100.00
51261;BME280;61705;46.228;24.812;2023-11-21T07:22:35;97152.53;;;4.63;100.00
51261;BME280;61705;46.228;24.812;2023-11-21T07:25:04;97157.81;;;4.61;100.00
51261;BME280;61705;46.228;24.812;2023-11-21T07:27:33;97150.94;;;4.59;100.00
51261;BME280;61705;46.228;24.812;2023-11-21T07:30:02;97147.16;;;4.67;100.00
51261;BME280;61705;46.228;24.812;2023-11-21T07:32:38;97157.97;;;4.85;100.00
51261;BME280;61705;46.228;24.812;2023-11-21T07:35:08;97152.69;;;4.86;100.00
51261;BME280;61705;46.228;24.812;2023-11-21T07:37:36;97158.94;;;4.82;100.00
51261;BME280;61705;46.228;24.812;2023-11-21T07:40:04;97157.50;;;4.72;100.00
51261;BME280;61705;46.228;24.812;2023-11-21T07:42:34;97160.88;;;4.75;100.00
51261;BME280;61705;46.228;24.812;2023-11-21T07:45:04;97166.97;;;4.76;100.00
51261;BME280;61705;46.228;24.812;2023-11-21T07:47:34;97169.63;;;4.74;100.00
51261;BME280;61705;46.228;24.812;2023-11-21T07:50:04;97176.28;;;4.85;100.00
51261;BME280;61705;46.228;24.812;2023-11-21T07:52:34;97169.16;;;4.90;100.00
51261;BME280;61705;46.228;24.812;2023-11-21T07:55:03;97167.13;;;4.99;100.00
51261;BME280;61705;46.228;24.812;2023-11-21T07:57:30;97160.72;;;5.08;100.00
51261;BME280;61705;46.228;24.812;2023-11-21T07:59:57;97157.09;;;5.12;100.00
51261;BME280;61705;46.228;24.812;2023-11-21T08:02:25;97158.00;;;5.11;100.00
51261;BME280;61705;46.228;24.812;2023-11-21T08:04:54;97146.47;;;5.17;100.00
51261;BME280;61705;46.228;24.812;2023-11-21T08:07:23;97155.59;;;5.32;100.00
51261;BME280;61705;46.228;24.812;2023-11-21T08:09:53;97156.84;;;5.20;100.00
51261;BME280;61705;46.228;24.812;2023-11-21T08:12:20;97161.28;;;5.18;100.00
51261;BME280;61705;46.228;24.812;2023-11-21T08:14:46;97168.13;;;5.22;100.00
51261;BME280;61705;46.228;24.812;2023-11-21T08:17:17;97161.03;;;5.26;100.00
51261;BME280;61705;46.228;24.812;2023-11-21T08:19:46;97158.00;;;5.38;100.00
51261;BME280;61705;46.228;24.812;2023-11-21T08:22:18;97149.44;;;5.33;100.00
51261;BME280;61705;46.228;24.812;2023-11-21T08:24:45;97156.34;;;5.60;100.00
51261;BME280;61705;46.228;24.812;2023-11-21T08:27:15;97146.66;;;5.89;100.00
51261;BME280;61705;46.228;24.812;2023-11-21T08:29:45;97146.94;;;5.81;100.00
51261;BME280;61705;46.228;24.812;2023-11-21T08:32:12;97144.63;;;5.97;100.00
51261;BME280;61705;46.228;24.812;2023-11-21T08:34:45;97142.53;;;6.07;100.00
51261;BME280;61705;46.228;24.812;2023-11-21T08:37:15;97150.94;;;6.16;100.00
51261;BME280;61705;46.228;24.812;2023-11-21T08:39:43;97141.69;;;6.06;100.00
51261;BME280;61705;46.228;24.812;2023-11-21T08:42:12;97143.06;;;6.16;100.00
51261;BME280;61705;46.228;24.812;2023-11-21T08:44:41;97144.88;;;6.14;100.00
51261;BME280;61705;46.228;24.812;2023-11-21T08:47:08;97150.09;;;6.16;100.00
51261;BME280;61705;46.228;24.812;2023-11-21T08:49:35;97149.22;;;6.15;100.00
51261;BME280;61705;46.228;24.812;2023-11-21T08:52:02;97156.41;;;6.34;100.00
51261;BME280;61705;46.228;24.812;2023-11-21T08:54:28;97147.41;;;6.41;100.00
51261;BME280;61705;46.228;24.812;2023-11-21T08:56:57;97148.69;;;6.53;100.00
51261;BME280;61705;46.228;24.812;2023-11-21T08:59:27;97148.31;;;6.63;100.00
51261;BME280;61705;46.228;24.812;2023-11-21T09:01:53;97141.69;;;6.53;100.00
51261;BME280;61705;46.228;24.812;2023-11-21T09:04:20;97146.47;;;6.42;100.00
51261;BME280;61705;46.228;24.812;2023-11-21T09:06:49;97139.34;;;6.22;100.00
51261;BME280;61705;46.228;24.812;2023-11-21T09:09:15;97129.25;;;6.35;100.00
51261;BME280;61705;46.228;24.812;2023-11-21T09:11:42;97136.84;;;6.19;100.00
51261;BME280;61705;46.228;24.812;2023-11-21T09:14:10;97143.16;;;6.13;100.00
51261;BME280;61705;46.228;24.812;2023-11-21T09:16:39;97136.84;;;5.96;100.00
51261;BME280;61705;46.228;24.812;2023-11-21T09:19:06;97132.69;;;6.13;100.00
51261;BME280;61705;46.228;24.812;2023-11-21T09:21:32;97125.47;;;6.18;100.00
51261;BME280;61705;46.228;24.812;2023-11-21T09:24:00;97122.50;;;6.04;100.00
51261;BME280;61705;46.228;24.812;2023-11-21T09:26:27;97114.09;;;5.96;100.00
51261;BME280;61705;46.228;24.812;2023-11-21T09:28:56;97108.66;;;6.01;100.00
51261;BME280;61705;46.228;24.812;2023-11-21T09:31:23;97107.06;;;5.97;100.00
51261;BME280;61705;46.228;24.812;2023-11-21T09:33:50;97100.16;;;5.94;100.00
51261;BME280;61705;46.228;24.812;2023-11-21T09:36:17;97094.25;;;6.12;100.00
51261;BME280;61705;46.228;24.812;2023-11-21T09:38:44;97094.50;;;6.28;100.00
51261;BME280;61705;46.228;24.812;2023-11-21T09:41:14;97091.38;;;6.42;100.00
51261;BME280;61705;46.228;24.812;2023-11-21T09:43:44;97086.69;;;6.50;100.00
51261;BME280;61705;46.228;24.812;2023-11-21T09:46:13;97081.19;;;6.56;100.00
51261;BME280;61705;46.228;24.812;2023-11-21T09:48:50;97082.72;;;6.62;100.00
51261;BME280;61705;46.228;24.812;2023-11-21T09:51:19;97079.66;;;6.73;100.00
51261;BME280;61705;46.228;24.812;2023-11-21T09:53:46;97072.25;;;6.84;100.00
51261;BME280;61705;46.228;24.812;2023-11-21T09:56:15;97079.28;;;7.04;100.00
51261;BME280;61705;46.228;24.812;2023-11-21T10:02:14;97069.00;;;7.20;100.00
51261;BME280;61705;46.228;24.812;2023-11-21T10:04:46;97069.47;;;7.29;100.00
51261;BME280;61705;46.228;24.812;2023-11-21T10:07:13;97069.81;;;7.42;100.00
51261;BME280;61705;46.228;24.812;2023-11-21T10:09:42;97062.06;;;7.59;100.00
51261;BME280;61705;46.228;24.812;2023-11-21T10:12:09;97062.44;;;7.71;100.00
51261;BME280;61705;46.228;24.812;2023-11-21T10:14:36;97049.88;;;7.77;100.00
51261;BME280;61705;46.228;24.812;2023-11-21T10:17:08;97044.97;;;7.89;100.00
51261;BME280;61705;46.228;24.812;2023-11-21T10:19:41;97047.34;;;7.95;100.00
51261;BME280;61705;46.228;24.812;2023-11-21T10:22:10;97043.63;;;7.99;99.57
51261;BME280;61705;46.228;24.812;2023-11-21T10:24:39;97040.59;;;8.08;98.72
51261;BME280;61705;46.228;24.812;2023-11-21T10:27:17;97043.53;;;8.21;99.37
51261;BME280;61705;46.228;24.812;2023-11-21T10:29:43;97034.75;;;8.20;100.00
51261;BME280;61705;46.228;24.812;2023-11-21T10:32:13;97033.47;;;8.29;99.89
51261;BME280;61705;46.228;24.812;2023-11-21T10:34:40;97029.91;;;8.30;97.61
51261;BME280;61705;46.228;24.812;2023-11-21T10:37:12;97021.03;;;8.32;96.33
51261;BME280;61705;46.228;24.812;2023-11-21T10:39:40;97017.06;;;8.43;97.13
51261;BME280;61705;46.228;24.812;2023-11-21T10:42:08;97016.50;;;8.55;97.79
51261;BME280;61705;46.228;24.812;2023-11-21T10:44:37;97010.16;;;8.59;96.24
51261;BME280;61705;46.228;24.812;2023-11-21T10:47:08;97009.22;;;8.60;96.66
51261;BME280;61705;46.228;24.812;2023-11-21T10:49:34;97008.38;;;8.60;97.68
51261;BME280;61705;46.228;24.812;2023-11-21T10:52:03;97009.91;;;8.64;95.92
51261;BME280;61705;46.228;24.812;2023-11-21T10:54:30;97003.22;;;8.75;96.05
51261;BME280;61705;46.228;24.812;2023-11-21T10:56:57;97006.00;;;8.90;96.67
51261;BME280;61705;46.228;24.812;2023-11-21T10:59:28;96995.00;;;8.99;93.80
51261;BME280;61705;46.228;24.812;2023-11-21T11:01:55;97006.06;;;8.88;93.75
51261;BME280;61705;46.228;24.812;2023-11-21T11:04:24;96999.34;;;8.83;nan
51261;BME280;61705;46.228;24.812;2023-11-21T11:07:01;96989.34;;;8.89;93.30
51261;BME280;61705;46.228;24.812;2023-11-21T11:09:31;96979.28;;;8.97;93.38
51261;BME280;61705;46.228;24.812;2023-11-21T11:12:04;96984.94;;;9.07;92.17
51261;BME280;61705;46.228;24.812;2023-11-21T11:14:32;96982.00;;;9.13;92.08
51261;BME280;61705;46.228;24.812;2023-11-21T11:16:59;96986.47;;;9.11;93.33
51261;BME280;61705;46.228;24.812;2023-11-21T11:19:28;96984.84;;;9.26;91.72
51261;BME280;61705;46.228;24.812;2023-11-21T11:34:44;96978.28;;;9.84;93.35
51261;BME280;61705;46.228;24.812;2023-11-21T11:37:12;96979.06;;;9.86;91.16
51261;BME280;61705;46.228;24.812;2023-11-21T11:39:43;96979.34;;;9.97;90.41
51261;BME280;61705;46.228;24.812;2023-11-21T11:42:13;96977.03;;;10.07;86.54
51261;BME280;61705;46.228;24.812;2023-11-21T11:47:20;96959.50;;;10.21;84.48
51261;BME280;61705;46.228;24.812;2023-11-21T11:50:04;96961.00;;;10.27;87.33
51261;BME280;61705;46.228;24.812;2023-11-21T11:52:41;96954.38;;;10.18;88.34
51261;BME280;61705;46.228;24.812;2023-11-21T11:55:09;96955.34;;;10.17;89.61
51261;BME280;61705;46.228;24.812;2023-11-21T11:57:37;96950.72;;;10.21;90.41
51261;BME280;61705;46.228;24.812;2023-11-21T12:00:12;96964.00;;;10.04;91.19
51261;BME280;61705;46.228;24.812;2023-11-21T12:02:49;96952.09;;;9.96;90.70
51261;BME280;61705;46.228;24.812;2023-11-21T12:05:17;96952.00;;;9.98;90.22
51261;BME280;61705;46.228;24.812;2023-11-21T12:07:45;96951.41;;;9.93;89.78
51261;BME280;61705;46.228;24.812;2023-11-21T12:10:16;96947.66;;;9.97;89.96
51261;BME280;61705;46.228;24.812;2023-11-21T12:12:46;96955.75;;;9.94;90.51
51261;BME280;61705;46.228;24.812;2023-11-21T12:15:13;96942.31;;;9.99;90.63
51261;BME280;61705;46.228;24.812;2023-11-21T12:17:42;96938.03;;;10.12;89.51
51261;BME280;61705;46.228;24.812;2023-11-21T12:20:13;96934.72;;;10.24;89.61
51261;BME280;61705;46.228;24.812;2023-11-21T12:22:46;96940.16;;;10.21;89.47
51261;BME280;61705;46.228;24.812;2023-11-21T12:25:19;96939.06;;;10.25;89.62
51261;BME280;61705;46.228;24.812;2023-11-21T12:27:47;96937.72;;;10.34;89.05
51261;BME280;61705;46.228;24.812;2023-11-21T12:30:27;96946.50;;;10.34;88.30
51261;BME280;61705;46.228;24.812;2023-11-21T12:33:02;96940.38;;;10.34;87.57
51261;BME280;61705;46.228;24.812;2023-11-21T12:35:31;96935.44;;;10.28;87.73
51261;BME280;61705;46.228;24.812;2023-11-21T12:38:01;96935.75;;;10.21;87.27
51261;BME280;61705;46.228;24.812;2023-11-21T12:40:31;96937.81;;;10.16;88.13
51261;BME280;61705;46.228;24.812;2023-11-21T12:42:58;96934.31;;;10.16;87.70
51261;BME280;61705;46.228;24.812;2023-11-21T12:45:30;96932.41;;;10.18;87.60
51261;BME280;61705;46.228;24.812;2023-11-21T12:48:00;96927.75;;;10.23;86.70
51261;BME280;61705;46.228;24.812;2023-11-21T12:50:30;96915.28;;;10.25;80.87
51261;BME280;61705;46.228;24.812;2023-11-21T12:53:07;96917.94;;;10.25;83.53
51261;BME280;61705;46.228;24.812;2023-11-21T12:55:38;96920.16;;;10.17;82.60
51261;BME280;61705;46.228;24.812;2023-11-21T12:58:07;96921.69;;;10.21;83.22
51261;BME280;61705;46.228;24.812;2023-11-21T13:00:38;96924.97;;;10.26;84.22
51261;BME280;61705;46.228;24.812;2023-11-21T13:03:05;96925.09;;;10.23;85.04
51261;BME280;61705;46.228;24.812;2023-11-21T13:05:39;96926.75;;;10.26;85.09
51261;BME280;61705;46.228;24.812;2023-11-21T13:08:07;96933.94;;;10.22;84.78
51261;BME280;61705;46.228;24.812;2023-11-21T13:10:35;96930.47;;;10.21;84.93
51261;BME280;61705;46.228;24.812;2023-11-21T13:13:05;96932.19;;;10.23;84.81
51261;BME280;61705;46.228;24.812;2023-11-21T13:15:38;96919.16;;;10.19;84.52
51261;BME280;61705;46.228;24.812;2023-11-21T13:18:06;96928.88;;;10.19;83.69